Create Custom Reports and Graphics: Custom Report

Modesto Jr College

Current Conditions

9/24/20 7:15 PM (-07:00)
Updated Every 15 Minutes
Temp 77.2 °F   1.5
RH 45 %   4
Dew Pt 54.2 °F   1.2
Wind Spd 7.5 mph
Wind Dir WNW | 293 °
Wind Gust 14.7 mph   5.0
Latest Rain 0.00 In
Daily Rain 0.00 In
Daily Min Temp 59.2 °F   7.1
Daily Max Temp 88.5 °F   1.4

Last 24 Hours

Modesto Jr College

15 Minute Data | America/Los_Angeles
as of 9/24/20 7:23 PM PDT
Date & Time Temp (°F) RH (%) Dew Pt (°F) Wind Spd (mph) Wind Dir (°) Wind Gust (mph) Latest Rain (In) Daily Rain (In) Daily Min Temp (°F) Daily Max Temp (°F)
9/24/20 - 1915 77.2 45 54.2 7.5 WNW | 293 14.7 0.00 0.00 59.2 88.5
9/24/20 - 1900 78.2 45 55.0 6.9 WNW | 290 13.4 0.00 0.00 59.2 88.5
9/24/20 - 1845 79.3 45 56.1 8.9 WNW | 286 14.9 0.00 0.00 59.2 88.5
9/24/20 - 1830 80.3 46 57.6 6.9 WNW | 290 11.6 0.00 0.00 59.2 88.5
9/24/20 - 1815 81.3 44 57.6 10.1 WNW | 286 18.2 0.00 0.00 59.2 88.5
9/24/20 - 1800 82.7 43 57.8 11.1 WNW | 285 20.4 0.00 0.00 59.2 88.5
9/24/20 - 1745 83.9 42 58.2 11.3 WNW | 284 19.5 0.00 0.00 59.2 88.5
9/24/20 - 1730 85.0 40 58.2 10.5 WNW | 287 21.3 0.00 0.00 59.2 88.5
9/24/20 - 1715 86.1 40 58.8 10.6 W | 281 17.5 0.00 0.00 59.2 88.5
9/24/20 - 1700 87.3 38 58.5 10.1 WNW | 288 20.4 0.00 0.00 59.2 88.5
9/24/20 - 1645 87.3 37 57.6 8.0 WNW | 291 16.0 0.00 0.00 59.2 88.5
9/24/20 - 1630 88.2 36 57.6 8.4 W | 278 15.6 0.00 0.00 59.2 88.5
9/24/20 - 1615 87.8 36 57.5 9.3 WNW | 295 15.1 0.00 0.00 59.2 88.5
9/24/20 - 1600 87.9 36 57.6 8.7 WNW | 296 19.3 0.00 0.00 59.2 88.5
9/24/20 - 1545 87.9 36 57.8 9.4 WNW | 298 16.9 0.00 0.00 59.2 88.5
9/24/20 - 1530 88.1 36 58.0 8.8 WNW | 295 16.7 0.00 0.00 59.2 88.5
9/24/20 - 1515 88.0 37 58.8 8.8 WNW | 297 15.6 0.00 0.00 59.2 88.5
9/24/20 - 1500 87.4 37 57.9 9.2 WNW | 302 18.2 0.00 0.00 59.2 88.1
9/24/20 - 1445 87.3 37 57.8 10.1 WNW | 293 18.2 0.00 0.00 59.2 88.0
9/24/20 - 1430 87.2 37 57.7 10.3 NW | 307 19.1 0.00 0.00 59.2 87.7
9/24/20 - 1415 87.1 38 58.1 9.1 WNW | 302 15.8 0.00 0.00 59.2 87.7
9/24/20 - 1400 86.7 38 58.1 9.0 WNW | 299 17.1 0.00 0.00 59.2 87.1
9/24/20 - 1345 85.8 39 58.1 8.2 NW | 312 14.9 0.00 0.00 59.2 86.6
9/24/20 - 1330 85.0 40 58.3 7.6 WNW | 293 14.5 0.00 0.00 59.2 86.1
9/24/20 - 1315 84.2 43 59.0 6.7 NW | 314 11.8 0.00 0.00 59.2 84.7
9/24/20 - 1300 82.7 43 58.3 8.4 NW | 306 15.3 0.00 0.00 59.2 84.4
9/24/20 - 1245 82.5 44 58.2 8.4 NW | 307 14.7 0.00 0.00 59.2 83.4
9/24/20 - 1230 82.0 45 58.4 6.9 WNW | 296 13.2 0.00 0.00 59.2 82.9
9/24/20 - 1215 81.0 47 58.6 6.7 WNW | 302 12.1 0.00 0.00 59.2 82.1
9/24/20 - 1200 79.8 48 58.5 7.8 NW | 309 14.0 0.00 0.00 59.2 80.9
9/24/20 - 1145 79.1 49 58.1 7.8 NW | 312 13.8 0.00 0.00 59.2 79.5
9/24/20 - 1130 78.4 50 58.3 6.8 WNW | 299 12.7 0.00 0.00 59.2 79.2
9/24/20 - 1115 77.4 52 58.3 7.9 NW | 308 12.9 0.00 0.00 59.2 78.0
9/24/20 - 1100 76.6 54 58.4 6.7 NW | 319 11.8 0.00 0.00 59.2 77.3
9/24/20 - 1045 76.2 54 58.2 6.7 WNW | 301 15.3 0.00 0.00 59.2 76.8
9/24/20 - 1030 75.1 57 59.0 4.9 NW | 313 9.6 0.00 0.00 59.2 76.0
9/24/20 - 1015 74.8 58 58.8 5.8 NW | 312 11.2 0.00 0.00 59.2 75.4
9/24/20 - 1000 74.3 57 58.0 6.7 WNW | 294 12.5 0.00 0.00 59.2 74.8
9/24/20 - 0945 72.8 60 58.1 7.0 NW | 312 11.4 0.00 0.00 59.2 73.4
9/24/20 - 0930 71.5 64 58.6 5.2 NNW | 332 10.3 0.00 0.00 59.2 72.6
9/24/20 - 0915 69.9 67 58.4 5.8 NNW | 333 10.5 0.00 0.00 59.2 70.7
9/24/20 - 0900 68.8 70 58.8 4.7 NNW | 347 7.9 0.00 0.00 59.2 69.5
9/24/20 - 0845 67.4 74 58.7 5.5 N | 350 9.6 0.00 0.00 59.2 68.0
9/24/20 - 0830 66.4 76 58.5 5.5 N | 358 9.4 0.00 0.00 59.2 67.0
9/24/20 - 0815 65.6 77 58.3 4.9 N | 1 8.1 0.00 0.00 59.2 66.2
9/24/20 - 0800 64.7 79 58.0 5.1 N | 1 8.8 0.00 0.00 59.2 65.4
9/24/20 - 0745 63.4 81 57.6 4.9 N | 353 8.1 0.00 0.00 59.2 65.4
9/24/20 - 0730 62.1 83 57.0 3.7 N | 358 6.6 0.00 0.00 59.2 65.4
9/24/20 - 0715 61.0 85 56.4 3.3 N | 357 5.3 0.00 0.00 59.2 65.4
9/24/20 - 0700 60.7 84 55.8 3.0 N | 351 5.0 0.00 0.00 59.2 65.4
9/24/20 - 0645 60.8 84 55.9 3.1 N | 357 5.9 0.00 0.00 59.2 65.4
9/24/20 - 0630 60.8 83 55.6 2.8 N | 359 5.3 0.00 0.00 59.2 65.4
9/24/20 - 0615 61.1 82 55.5 3.3 N | 359 6.1 0.00 0.00 59.2 65.4
9/24/20 - 0600 61.2 81 55.4 3.1 N | 3 5.5 0.00 0.00 59.2 65.4
9/24/20 - 0545 61.1 82 55.5 3.2 NNW | 345 5.5 0.00 0.00 59.2 65.4
9/24/20 - 0530 59.7 84 54.8 2.4 N | 9 6.6 0.00 0.00 59.2 65.4
9/24/20 - 0515 60.4 81 54.4 1.1 NNW | 327 3.5 0.00 0.00 59.6 65.4
9/24/20 - 0500 61.0 80 54.9 2.2 N | 10 3.7 0.00 0.00 60.4 65.4
9/24/20 - 0445 61.0 80 54.9 2.3 N | 360 3.7 0.00 0.00 60.4 65.4
9/24/20 - 0430 61.0 81 55.2 3.3 NNE | 21 5.9 0.00 0.00 60.4 65.4
9/24/20 - 0415 61.0 82 55.3 3.7 NNE | 18 5.9 0.00 0.00 60.4 65.4
9/24/20 - 0400 60.8 82 55.3 3.2 NNE | 27 5.9 0.00 0.00 60.4 65.4
9/24/20 - 0345 60.6 82 55.3 3.7 NNE | 25 5.7 0.00 0.00 60.4 65.4
9/24/20 - 0330 60.8 82 55.2 3.3 NNE | 17 5.0 0.00 0.00 60.4 65.4
9/24/20 - 0315 60.8 82 55.2 2.3 NNE | 21 4.4 0.00 0.00 60.4 65.4
9/24/20 - 0300 60.6 82 55.1 3.1 NNE | 23 4.4 0.00 0.00 60.4 65.4
9/24/20 - 0245 61.1 81 55.1 3.0 NNE | 13 4.8 0.00 0.00 60.7 65.4
9/24/20 - 0230 61.6 79 55.2 2.4 NNE | 13 3.9 0.00 0.00 61.1 65.4
9/24/20 - 0215 62.0 79 55.2 2.7 N | 6 5.5 0.00 0.00 61.5 65.4
9/24/20 - 0200 62.6 77 55.3 3.2 N | 2 7.2 0.00 0.00 62.2 65.4
9/24/20 - 0145 62.9 75 54.9 3.8 NNE | 14 6.4 0.00 0.00 62.5 65.4
9/24/20 - 0130 63.7 72 54.5 3.8 NNE | 13 6.4 0.00 0.00 62.9 65.4
9/24/20 - 0115 65.0 66 53.5 4.3 N | 350 8.8 0.00 0.00 64.4 65.4
9/24/20 - 0100 65.8 64 53.1 4.3 N | 355 8.1 0.00 0.00 52.1 89.9
9/24/20 - 0045 66.0 63 52.9 4.7 NNW | 333 8.1 0.00 0.00 52.1 89.9
9/24/20 - 0030 67.0 60 52.8 4.7 NW | 322 7.9 0.00 0.00 52.1 89.9
9/24/20 - 0015 68.0 57 52.3 5.9 NW | 308 10.3 0.00 0.00 52.1 89.9
9/24/20 - 0000 68.9 56 52.4 7.8 NW | 317 15.8 0.00 0.00 52.1 89.9
9/23/20 - 2345 68.9 59 54.0 7.4 NW | 324 12.9 0.00 0.00 52.1 89.9
9/23/20 - 2330 69.2 60 54.6 6.5 NW | 326 12.5 0.00 0.00 52.1 89.9
9/23/20 - 2315 69.6 59 54.4 7.4 NW | 319 15.3 0.00 0.00 52.1 89.9
9/23/20 - 2300 70.0 59 54.8 6.9 NW | 315 13.8 0.00 0.00 52.1 89.9
9/23/20 - 2245 70.0 59 55.0 6.5 NW | 313 12.5 0.00 0.00 52.1 89.9
9/23/20 - 2230 70.4 58 54.9 6.4 NW | 320 12.5 0.00 0.00 52.1 89.9
9/23/20 - 2215 70.8 57 54.8 6.7 NW | 317 11.4 0.00 0.00 52.1 89.9
9/23/20 - 2200 71.3 57 55.2 6.2 NW | 323 11.2 0.00 0.00 52.1 89.9
9/23/20 - 2145 72.0 55 54.8 7.1 NW | 319 12.1 0.00 0.00 52.1 89.9
9/23/20 - 2130 73.1 50 53.6 6.9 NW | 313 12.1 0.00 0.00 52.1 89.9
9/23/20 - 2115 73.4 51 54.0 8.5 NW | 307 16.9 0.00 0.00 52.1 89.9
9/23/20 - 2100 73.6 52 55.0 6.8 NW | 318 12.5 0.00 0.00 52.1 89.9
9/23/20 - 2045 74.6 50 54.6 8.0 NW | 318 15.3 0.00 0.00 52.1 89.9
9/23/20 - 2030 75.1 48 54.0 8.0 NW | 319 15.1 0.00 0.00 52.1 89.9
9/23/20 - 2015 75.7 45 52.9 7.3 NW | 321 11.6 0.00 0.00 52.1 89.9
9/23/20 - 2000 76.1 45 53.0 5.7 NW | 312 10.5 0.00 0.00 52.1 89.9
9/23/20 - 1945 76.9 44 53.2 6.9 NW | 306 12.9 0.00 0.00 52.1 89.9
9/23/20 - 1930 77.7 42 53.0 6.0 NW | 305 12.5 0.00 0.00 52.1 89.9
9/23/20 - 1915 78.7 41 53.0 5.7 WNW | 294 9.6 0.00 0.00 52.1 89.9
Max 88.2 85 59.0 11.3 - 21.3 0.00 0.00 64.4 89.9
Avg 72.9 58 56.2 6.2 - 11.4 0.00 - - -
Min 59.7 36 52.3 1.1 - 3.5 0.00 0.00 52.1 65.4
Total - - - - - - 0.00 - - -

Last 7 Days

Modesto Jr College

Daily Data | America/Los_Angeles
as of 9/24/20 7:23 PM PDT
Date Daily ETo (in)
9/23/20 0.190
9/22/20 0.193
9/21/20 0.159
9/20/20 0.156
9/19/20 0.162
9/18/20 0.152
9/17/20 0.133
Max 0.193
Min 0.133